createdAt,value
2022-09-02T00:00:04.985Z,27.19
2022-09-02T00:01:04.963Z,27.19
2022-09-02T00:02:05.105Z,27.19
2022-09-02T00:03:05.112Z,27.23
2022-09-02T00:04:04.929Z,27.28
2022-09-02T00:05:04.920Z,27.19
2022-09-02T00:06:04.923Z,27.19
2022-09-02T00:07:04.898Z,27.20
2022-09-02T00:08:04.887Z,27.13
2022-09-02T00:09:04.873Z,27.17
2022-09-02T00:10:04.862Z,27.21
2022-09-02T00:11:04.852Z,27.21
2022-09-02T00:12:04.845Z,27.13
2022-09-02T00:13:04.828Z,27.17
2022-09-02T00:14:04.818Z,27.11
2022-09-02T00:15:04.808Z,27.13
2022-09-02T00:16:04.878Z,27.17
2022-09-02T00:17:04.784Z,27.13
2022-09-02T00:18:04.778Z,27.19
2022-09-02T00:19:04.762Z,27.14
2022-09-02T00:20:04.752Z,27.16
2022-09-02T00:21:04.742Z,27.13
2022-09-02T00:22:04.728Z,27.20
2022-09-02T00:23:04.722Z,27.17
2022-09-02T00:24:04.715Z,27.17
2022-09-02T00:25:04.697Z,27.19
2022-09-02T00:26:04.686Z,27.23
2022-09-02T00:27:04.673Z,27.19
2022-09-02T00:28:04.661Z,27.16
2022-09-02T00:29:04.649Z,27.21
2022-09-02T00:30:04.660Z,27.09
2022-09-02T00:31:04.627Z,27.17
2022-09-02T00:32:04.686Z,27.14
2022-09-02T00:33:04.605Z,27.16
2022-09-02T00:34:04.595Z,27.16
2022-09-02T00:35:04.583Z,27.13
2022-09-02T00:36:04.603Z,27.17
2022-09-02T00:37:04.562Z,27.14
2022-09-02T00:38:04.551Z,27.19
2022-09-02T00:39:04.539Z,27.17
2022-09-02T00:40:04.588Z,27.14
2022-09-02T00:41:04.515Z,27.11
2022-09-02T00:42:04.520Z,27.13
2022-09-02T00:43:04.497Z,27.19
2022-09-02T00:44:04.484Z,27.14
2022-09-02T00:45:04.472Z,27.13
2022-09-02T00:46:04.555Z,27.16
2022-09-02T00:47:04.450Z,27.13
2022-09-02T00:48:04.445Z,27.11
2022-09-02T00:49:04.426Z,27.10
2022-09-02T00:50:04.416Z,27.06
2022-09-02T00:51:04.406Z,27.10
2022-09-02T00:52:04.393Z,27.13
2022-09-02T00:53:04.383Z,27.09
2022-09-02T00:54:04.392Z,27.10
2022-09-02T00:55:04.360Z,27.09
2022-09-02T00:56:04.349Z,27.06
2022-09-02T00:57:04.338Z,27.06
2022-09-02T00:58:04.326Z,27.14
2022-09-02T00:59:05.321Z,27.10
2022-09-02T01:00:04.304Z,27.06
2022-09-02T01:01:04.416Z,27.05
2022-09-02T01:02:04.421Z,27.06
2022-09-02T01:03:04.271Z,27.10
2022-09-02T01:04:04.264Z,27.09
2022-09-02T01:05:04.269Z,27.11
2022-09-02T01:06:04.237Z,27.11
2022-09-02T01:07:04.228Z,27.04
2022-09-02T01:08:04.215Z,27.10
2022-09-02T01:09:04.204Z,27.09
2022-09-02T01:10:04.196Z,27.09
2022-09-02T01:11:04.210Z,27.10
2022-09-02T01:12:04.171Z,27.11
2022-09-02T01:13:04.159Z,27.09
2022-09-02T01:14:04.148Z,27.06
2022-09-02T01:15:04.137Z,27.09
2022-09-02T01:16:04.159Z,27.14
2022-09-02T01:17:04.122Z,27.10
2022-09-02T01:18:04.104Z,27.09
2022-09-02T01:19:04.092Z,27.06
2022-09-02T01:20:04.080Z,27.11
2022-09-02T01:21:04.074Z,27.06
2022-09-02T01:22:04.058Z,27.10
2022-09-02T01:23:04.063Z,27.09
2022-09-02T01:24:04.036Z,27.09
2022-09-02T01:25:04.024Z,27.04
2022-09-02T01:26:04.016Z,27.13
2022-09-02T01:27:04.003Z,27.10
2022-09-02T01:28:03.995Z,27.06
2022-09-02T01:29:03.988Z,27.11
2022-09-02T01:30:03.968Z,27.06
2022-09-02T01:31:04.063Z,27.06
2022-09-02T01:32:03.948Z,27.01
2022-09-02T01:33:03.936Z,27.06
2022-09-02T01:34:03.928Z,27.09
2022-09-02T01:35:03.935Z,27.10
2022-09-02T01:36:03.905Z,27.06
2022-09-02T01:37:03.891Z,27.06
2022-09-02T01:38:03.880Z,27.04
2022-09-02T01:39:03.868Z,27.05
2022-09-02T01:40:03.979Z,27.01
2022-09-02T01:41:03.875Z,27.01
2022-09-02T01:42:03.835Z,27.11
2022-09-02T01:43:03.824Z,27.09
2022-09-02T01:44:03.813Z,27.11
2022-09-02T01:45:03.804Z,27.02
2022-09-02T01:46:03.790Z,27.02
2022-09-02T01:47:03.856Z,27.02
2022-09-02T01:48:03.768Z,27.05
2022-09-02T01:49:03.759Z,27.05
2022-09-02T01:50:03.745Z,27.04
2022-09-02T01:51:03.735Z,27.04
2022-09-02T01:52:03.723Z,27.05
2022-09-02T01:53:03.732Z,27.01
2022-09-02T01:54:03.701Z,27.06
2022-09-02T01:55:03.691Z,27.02
2022-09-02T01:56:03.678Z,27.09
2022-09-02T01:57:03.668Z,27.05
2022-09-02T01:58:03.656Z,26.99
2022-09-02T01:59:04.155Z,27.01
2022-09-02T02:00:03.635Z,27.05
2022-09-02T02:01:03.677Z,27.04
2022-09-02T02:02:03.657Z,27.04
2022-09-02T02:03:03.600Z,27.04
2022-09-02T02:04:03.589Z,27.05
2022-09-02T02:05:03.644Z,27.01
2022-09-02T02:06:03.570Z,27.05
2022-09-02T02:07:03.558Z,26.99
2022-09-02T02:08:03.546Z,27.02
2022-09-02T02:09:03.533Z,27.04
2022-09-02T02:10:03.523Z,27.02
2022-09-02T02:11:03.532Z,27.02
2022-09-02T02:12:03.502Z,27.04
2022-09-02T02:13:03.489Z,26.98
2022-09-02T02:14:03.478Z,27.02
2022-09-02T02:15:03.468Z,27.02
2022-09-02T02:16:03.512Z,26.95
2022-09-02T02:17:03.473Z,26.99
2022-09-02T02:18:03.433Z,27.02
2022-09-02T02:19:03.422Z,27.01
2022-09-02T02:20:03.410Z,27.05
2022-09-02T02:21:03.400Z,26.99
2022-09-02T02:22:03.390Z,27.01
2022-09-02T02:23:03.384Z,26.99
2022-09-02T02:24:03.366Z,26.99
2022-09-02T02:25:03.366Z,27.01
2022-09-02T02:26:03.344Z,27.01
2022-09-02T02:27:03.335Z,26.96
2022-09-02T02:28:03.323Z,27.01
2022-09-02T02:29:03.317Z,26.99
2022-09-02T02:30:03.301Z,26.96
2022-09-02T02:31:03.371Z,26.98
2022-09-02T02:32:03.277Z,27.01
2022-09-02T02:33:03.266Z,26.95
2022-09-02T02:34:03.256Z,26.99
2022-09-02T02:35:03.250Z,26.99
2022-09-02T02:36:03.232Z,26.96
2022-09-02T02:37:03.224Z,26.98
2022-09-02T02:38:03.845Z,26.96
2022-09-02T02:39:03.199Z,26.94
2022-09-02T02:40:03.187Z,26.96
2022-09-02T02:41:03.183Z,26.94
2022-09-02T02:42:03.165Z,26.91
2022-09-02T02:43:03.154Z,26.94
2022-09-02T02:44:03.144Z,26.92
2022-09-02T02:45:03.132Z,26.86
2022-09-02T02:46:03.121Z,26.96
2022-09-02T02:47:03.153Z,26.89
2022-09-02T02:48:03.101Z,26.96
2022-09-02T02:49:03.090Z,26.92
2022-09-02T02:50:03.081Z,26.96
2022-09-02T02:51:03.064Z,26.95
2022-09-02T02:52:03.053Z,26.89
2022-09-02T02:53:03.052Z,26.91
2022-09-02T02:54:03.031Z,26.94
2022-09-02T02:55:03.021Z,26.86
2022-09-02T02:56:03.010Z,26.95
2022-09-02T02:57:03.163Z,26.86
2022-09-02T02:58:02.991Z,26.92
2022-09-02T02:59:02.982Z,26.91
2022-09-02T03:00:02.965Z,26.89
2022-09-02T03:01:02.954Z,26.94
2022-09-02T03:02:03.080Z,26.94
2022-09-02T03:03:02.998Z,26.91
2022-09-02T03:04:02.920Z,26.86
2022-09-02T03:05:02.939Z,26.94
2022-09-02T03:06:02.902Z,26.95
2022-09-02T03:07:02.887Z,26.91
2022-09-02T03:08:02.877Z,26.91
2022-09-02T03:09:02.864Z,26.91
2022-09-02T03:10:02.853Z,26.94
2022-09-02T03:11:02.847Z,26.98
2022-09-02T03:12:02.830Z,26.89
2022-09-02T03:13:02.819Z,26.94
2022-09-02T03:14:02.812Z,26.86
2022-09-02T03:15:02.796Z,26.94
2022-09-02T03:16:02.838Z,26.96
2022-09-02T03:17:02.806Z,26.89
2022-09-02T03:18:02.764Z,26.94
2022-09-02T03:19:02.752Z,26.91
2022-09-02T03:20:02.742Z,26.94
2022-09-02T03:21:02.729Z,26.94
2022-09-02T03:22:02.718Z,26.96
2022-09-02T03:23:02.728Z,26.94
2022-09-02T03:24:02.703Z,26.92
2022-09-02T03:25:02.685Z,26.95
2022-09-02T03:26:02.675Z,26.92
2022-09-02T03:27:02.663Z,26.92
2022-09-02T03:28:02.652Z,26.89
2022-09-02T03:29:02.649Z,26.92
2022-09-02T03:30:02.629Z,26.87
2022-09-02T03:31:02.657Z,26.92
2022-09-02T03:32:02.973Z,26.89
2022-09-02T03:33:04.253Z,26.86
2022-09-02T03:34:02.587Z,26.94
2022-09-02T03:35:02.581Z,26.89
2022-09-02T03:36:02.562Z,26.87
2022-09-02T03:37:02.552Z,26.81
2022-09-02T03:38:02.544Z,26.81
2022-09-02T03:39:02.528Z,26.91
2022-09-02T03:40:02.518Z,26.95
2022-09-02T03:41:02.521Z,26.91
2022-09-02T03:42:02.501Z,26.89
2022-09-02T03:43:02.484Z,26.87
2022-09-02T03:44:02.472Z,26.92
2022-09-02T03:45:02.462Z,26.91
2022-09-02T03:46:02.545Z,26.86
2022-09-02T03:47:02.445Z,26.83
2022-09-02T03:48:02.430Z,26.87
2022-09-02T03:49:02.416Z,26.84
2022-09-02T03:50:02.407Z,26.84
2022-09-02T03:51:02.394Z,26.84
2022-09-02T03:52:02.385Z,26.83
2022-09-02T03:53:02.404Z,26.87
2022-09-02T03:54:02.363Z,26.89
2022-09-02T03:55:02.351Z,26.87
2022-09-02T03:56:02.339Z,26.81
2022-09-02T03:57:02.329Z,26.87
2022-09-02T03:58:06.557Z,26.83
2022-09-02T03:59:03.325Z,26.84
2022-09-02T04:00:02.297Z,26.87
2022-09-02T04:01:02.284Z,26.86
2022-09-02T04:02:02.389Z,26.81
2022-09-02T04:03:02.338Z,26.80
2022-09-02T04:04:02.252Z,26.84
2022-09-02T04:05:02.261Z,26.83
2022-09-02T04:06:02.229Z,26.83
2022-09-02T04:07:02.218Z,26.83
2022-09-02T04:08:02.205Z,26.83
2022-09-02T04:09:02.194Z,26.80
2022-09-02T04:10:02.183Z,26.81
2022-09-02T04:11:02.187Z,26.84
2022-09-02T04:12:02.160Z,26.81
2022-09-02T04:13:02.149Z,26.83
2022-09-02T04:14:02.137Z,26.77
2022-09-02T04:15:02.127Z,26.83
2022-09-02T04:16:02.314Z,26.81
2022-09-02T04:17:02.112Z,26.77
2022-09-02T04:18:02.094Z,26.81
2022-09-02T04:19:02.109Z,26.79
2022-09-02T04:20:02.071Z,26.80
2022-09-02T04:21:02.060Z,26.89
2022-09-02T04:22:02.049Z,26.81
2022-09-02T04:23:02.044Z,26.80
2022-09-02T04:24:02.026Z,26.80
2022-09-02T04:25:02.016Z,26.83
2022-09-02T04:26:02.008Z,26.80
2022-09-02T04:27:04.445Z,26.80
2022-09-02T04:28:01.981Z,26.83
2022-09-02T04:29:02.001Z,26.84
2022-09-02T04:30:01.959Z,26.80
2022-09-02T04:31:02.041Z,26.77
2022-09-02T04:32:01.939Z,26.80
2022-09-02T04:33:01.928Z,26.84
2022-09-02T04:34:01.915Z,26.81
2022-09-02T04:35:01.927Z,26.84
2022-09-02T04:36:01.896Z,26.77
2022-09-02T04:37:01.881Z,26.79
2022-09-02T04:38:01.869Z,26.80
2022-09-02T04:39:01.863Z,26.79
2022-09-02T04:40:01.848Z,26.81
2022-09-02T04:41:01.844Z,26.80
2022-09-02T04:42:01.826Z,26.80
2022-09-02T04:43:01.814Z,26.86
2022-09-02T04:44:01.805Z,26.84
2022-09-02T04:45:01.791Z,26.83
2022-09-02T04:46:01.822Z,26.79
2022-09-02T04:47:01.776Z,26.81
2022-09-02T04:48:01.759Z,26.80
2022-09-02T04:49:01.746Z,26.80
2022-09-02T04:50:01.735Z,26.83
2022-09-02T04:51:01.724Z,26.83
2022-09-02T04:52:01.717Z,26.84
2022-09-02T04:53:01.717Z,26.81
2022-09-02T04:54:01.692Z,26.80
2022-09-02T04:55:01.680Z,26.83
2022-09-02T04:56:01.668Z,26.86
2022-09-02T04:57:01.658Z,26.87
2022-09-02T04:58:01.647Z,26.86
2022-09-02T04:59:01.641Z,26.83
2022-09-02T05:00:01.624Z,26.79
2022-09-02T05:01:01.782Z,26.79
2022-09-02T05:02:01.742Z,26.87
2022-09-02T05:03:01.667Z,26.92
2022-09-02T05:04:01.582Z,26.87
2022-09-02T05:05:01.598Z,26.87
2022-09-02T05:06:01.560Z,26.86
2022-09-02T05:07:01.553Z,26.86
2022-09-02T05:08:01.538Z,26.87
2022-09-02T05:09:01.528Z,26.91
2022-09-02T05:10:01.513Z,26.89
2022-09-02T05:11:01.525Z,26.86
2022-09-02T05:12:01.489Z,26.84
2022-09-02T05:13:01.488Z,26.89
2022-09-02T05:14:01.467Z,26.87
2022-09-02T05:15:01.458Z,26.87
2022-09-02T05:16:01.516Z,26.86
2022-09-02T05:17:06.642Z,26.84
2022-09-02T05:18:03.770Z,26.95
2022-09-02T05:19:01.412Z,26.91
2022-09-02T05:20:01.402Z,26.95
2022-09-02T05:21:01.410Z,26.84
2022-09-02T05:22:01.379Z,26.84
2022-09-02T05:23:01.383Z,26.87
2022-09-02T05:24:01.366Z,26.86
2022-09-02T05:25:01.346Z,26.86
2022-09-02T05:26:01.334Z,26.96
2022-09-02T05:27:01.321Z,26.94
2022-09-02T05:28:01.312Z,26.91
2022-09-02T05:29:01.308Z,26.91
2022-09-02T05:30:01.292Z,26.95
2022-09-02T05:31:01.333Z,26.94
2022-09-02T05:32:01.267Z,26.98
2022-09-02T05:33:01.256Z,26.92
2022-09-02T05:34:01.244Z,26.92
2022-09-02T05:35:01.254Z,26.91
2022-09-02T05:36:01.223Z,26.92
2022-09-02T05:37:01.211Z,26.86
2022-09-02T05:38:01.323Z,26.89
2022-09-02T05:39:01.188Z,26.89
2022-09-02T05:40:01.412Z,26.94
2022-09-02T05:41:01.198Z,26.91
2022-09-02T05:42:01.154Z,26.91
2022-09-02T05:43:01.145Z,26.91
2022-09-02T05:44:01.503Z,26.96
2022-09-02T05:45:01.121Z,26.89
2022-09-02T05:46:01.192Z,26.87
2022-09-02T05:47:01.114Z,26.95
2022-09-02T05:48:01.088Z,26.94
2022-09-02T05:49:01.080Z,26.99
2022-09-02T05:50:01.069Z,26.91
2022-09-02T05:51:01.056Z,26.95
2022-09-02T05:52:01.042Z,26.96
2022-09-02T05:53:01.053Z,26.99
2022-09-02T05:54:01.020Z,26.92
2022-09-02T05:55:01.011Z,26.89
2022-09-02T05:56:00.998Z,26.92
2022-09-02T05:57:00.991Z,26.96
2022-09-02T05:58:00.977Z,27.02
2022-09-02T05:59:01.869Z,26.98
2022-09-02T06:00:00.954Z,26.95
2022-09-02T06:01:00.943Z,27.02
2022-09-02T06:02:01.006Z,26.99
2022-09-02T06:03:00.978Z,27.02
2022-09-02T06:04:00.909Z,27.01
2022-09-02T06:05:00.904Z,27.02
2022-09-02T06:06:06.407Z,27.01
2022-09-02T06:07:01.878Z,26.99
2022-09-02T06:08:00.866Z,27.02
2022-09-02T06:09:00.854Z,27.01
2022-09-02T06:10:00.845Z,27.01
2022-09-02T06:11:00.838Z,27.02
2022-09-02T06:12:00.820Z,27.04
2022-09-02T06:13:00.809Z,26.99
2022-09-02T06:14:00.799Z,27.01
2022-09-02T06:15:00.786Z,27.05
2022-09-02T06:16:00.835Z,27.02
2022-09-02T06:17:00.809Z,27.04
2022-09-02T06:18:00.754Z,27.06
2022-09-02T06:19:00.742Z,27.05
2022-09-02T06:20:00.732Z,27.09
2022-09-02T06:21:00.722Z,27.09
2022-09-02T06:22:00.709Z,27.11
2022-09-02T06:23:00.703Z,27.09
2022-09-02T06:24:00.694Z,27.11
2022-09-02T06:25:00.674Z,27.10
2022-09-02T06:26:00.665Z,27.14
2022-09-02T06:27:00.652Z,27.04
2022-09-02T06:28:04.110Z,27.05
2022-09-02T06:29:01.646Z,27.13
2022-09-02T06:30:00.622Z,27.10
2022-09-02T06:31:00.697Z,27.09
2022-09-02T06:32:00.600Z,27.14
2022-09-02T06:33:00.587Z,27.17
2022-09-02T06:34:00.576Z,27.14
2022-09-02T06:35:00.570Z,27.17
2022-09-02T06:36:00.552Z,27.14
2022-09-02T06:37:00.558Z,27.19
2022-09-02T06:38:00.531Z,27.16
2022-09-02T06:39:00.524Z,27.17
2022-09-02T06:40:00.506Z,27.20
2022-09-02T06:41:00.518Z,27.17
2022-09-02T06:42:00.485Z,27.19
2022-09-02T06:43:00.473Z,27.20
2022-09-02T06:44:00.463Z,27.24
2022-09-02T06:45:00.451Z,27.16
2022-09-02T06:46:00.520Z,27.16
2022-09-02T06:47:00.439Z,27.21
2022-09-02T06:48:00.423Z,27.23
2022-09-02T06:49:00.413Z,27.19
2022-09-02T06:50:00.396Z,27.23
2022-09-02T06:51:00.384Z,27.28
2022-09-02T06:52:00.374Z,27.31
2022-09-02T06:53:00.375Z,27.24
2022-09-02T06:54:00.754Z,27.24
2022-09-02T06:55:00.341Z,27.35
2022-09-02T06:56:00.332Z,27.32
2022-09-02T06:57:00.317Z,27.32
2022-09-02T06:58:00.307Z,27.29
2022-09-02T06:59:00.312Z,27.28
2022-09-02T07:00:02.386Z,27.31
2022-09-02T07:01:00.307Z,27.31
2022-09-02T07:02:00.501Z,27.33
2022-09-02T07:03:00.254Z,27.29
2022-09-02T07:04:00.241Z,27.33
2022-09-02T07:05:00.234Z,27.28
2022-09-02T07:06:00.217Z,27.42
2022-09-02T07:07:00.209Z,27.42
2022-09-02T07:08:00.194Z,27.39
2022-09-02T07:09:00.184Z,27.46
2022-09-02T07:10:00.176Z,27.36
2022-09-02T07:11:00.169Z,27.41
2022-09-02T07:12:04.276Z,27.41
2022-09-02T07:13:01.139Z,27.41
2022-09-02T07:14:00.128Z,27.38
2022-09-02T07:15:00.116Z,27.41
2022-09-02T07:16:00.114Z,27.46
2022-09-02T07:17:00.441Z,27.43
2022-09-02T07:18:00.095Z,27.35
2022-09-02T07:19:00.075Z,27.47
2022-09-02T07:20:00.061Z,27.39
2022-09-02T07:21:00.057Z,27.35
2022-09-02T07:22:00.042Z,27.42
2022-09-02T07:23:00.036Z,27.43
2022-09-02T07:24:00.017Z,27.41
2022-09-02T07:25:00.004Z,27.41
2022-09-02T07:25:59.993Z,27.42
2022-09-02T07:26:59.983Z,27.39
2022-09-02T07:27:59.972Z,27.41
2022-09-02T07:28:59.965Z,27.43
2022-09-02T07:29:59.949Z,27.43
2022-09-02T07:31:00.172Z,27.43
2022-09-02T07:31:59.932Z,27.38
2022-09-02T07:32:59.916Z,27.41
2022-09-02T07:33:59.906Z,27.41
2022-09-02T07:34:59.901Z,27.41
2022-09-02T07:35:59.882Z,27.39
2022-09-02T07:37:04.178Z,27.42
2022-09-02T07:38:00.859Z,27.39
2022-09-02T07:38:59.848Z,27.33
2022-09-02T07:39:59.839Z,27.43
2022-09-02T07:40:59.831Z,27.38
2022-09-02T07:41:59.816Z,27.41
2022-09-02T07:42:59.807Z,27.35
2022-09-02T07:44:00.004Z,27.43
2022-09-02T07:44:59.781Z,27.36
2022-09-02T07:45:59.851Z,27.36
2022-09-02T07:46:59.765Z,27.33
2022-09-02T07:47:59.749Z,27.38
2022-09-02T07:48:59.739Z,27.51
2022-09-02T07:50:18.186Z,27.46
2022-09-02T07:51:00.732Z,27.50
2022-09-02T07:51:59.703Z,27.38
2022-09-02T07:52:59.697Z,27.43
2022-09-02T07:53:59.681Z,27.50
2022-09-02T07:54:59.674Z,27.43
2022-09-02T07:55:59.658Z,27.46
2022-09-02T07:56:59.648Z,27.48
2022-09-02T07:57:59.636Z,27.47
2022-09-02T07:58:59.630Z,27.51
2022-09-02T07:59:59.614Z,27.58
2022-09-02T08:00:59.673Z,27.48
2022-09-02T08:01:59.640Z,27.46
2022-09-02T08:02:59.726Z,27.58
2022-09-02T08:04:01.600Z,27.47
2022-09-02T08:04:59.569Z,27.48
2022-09-02T08:05:59.547Z,27.48
2022-09-02T08:06:59.536Z,27.43
2022-09-02T08:07:59.526Z,27.54
2022-09-02T08:08:59.513Z,27.58
2022-09-02T08:09:59.502Z,27.42
2022-09-02T08:10:59.496Z,27.57
2022-09-02T08:11:59.480Z,27.54
2022-09-02T08:12:59.468Z,27.53
2022-09-02T08:13:59.459Z,27.57
2022-09-02T08:14:59.447Z,27.48
2022-09-02T08:15:59.436Z,27.62
2022-09-02T08:16:59.465Z,27.58
2022-09-02T08:17:59.414Z,27.47
2022-09-02T08:18:59.405Z,27.54
2022-09-02T08:19:59.391Z,27.59
2022-09-02T08:20:59.379Z,27.47
2022-09-02T08:21:59.368Z,27.58
2022-09-02T08:23:10.859Z,27.62
2022-09-02T08:24:00.367Z,27.58
2022-09-02T08:24:59.334Z,27.51
2022-09-02T08:25:59.325Z,27.58
2022-09-02T08:26:59.312Z,27.51
2022-09-02T08:27:59.305Z,27.57
2022-09-02T08:28:59.297Z,27.48
2022-09-02T08:29:59.280Z,27.58
2022-09-02T08:30:59.496Z,27.53
2022-09-02T08:31:59.458Z,27.54
2022-09-02T08:32:59.245Z,27.53
2022-09-02T08:33:59.235Z,27.53
2022-09-02T08:34:59.240Z,27.59
2022-09-02T08:35:59.212Z,27.59
2022-09-02T08:36:59.200Z,27.54
2022-09-02T08:37:59.190Z,27.53
2022-09-02T08:38:59.195Z,27.50
2022-09-02T08:39:59.167Z,27.54
2022-09-02T08:40:59.162Z,27.64
2022-09-02T08:42:59.134Z,27.57
2022-09-02T08:43:59.124Z,27.64
2022-09-02T08:44:59.112Z,27.58
2022-09-02T08:45:59.204Z,27.57
2022-09-02T08:46:59.095Z,27.67
2022-09-02T08:47:59.078Z,27.67
2022-09-02T08:48:59.066Z,27.67
2022-09-02T08:49:59.056Z,27.61
2022-09-02T08:50:59.046Z,27.59
2022-09-02T08:52:00.912Z,27.70
2022-09-02T08:52:59.029Z,27.66
2022-09-02T08:53:59.033Z,27.71
2022-09-02T08:54:59.000Z,27.79
2022-09-02T08:55:58.990Z,27.67
2022-09-02T08:56:58.977Z,27.71
2022-09-02T08:57:59.018Z,27.74
2022-09-02T08:58:58.987Z,27.74
2022-09-02T08:59:58.944Z,27.73
2022-09-02T09:00:59.002Z,27.67
2022-09-02T09:02:00.864Z,27.74
2022-09-02T09:02:58.910Z,27.76
2022-09-02T09:03:58.900Z,27.73
2022-09-02T09:04:58.895Z,27.76
2022-09-02T09:05:58.876Z,27.79
2022-09-02T09:06:58.867Z,27.73
2022-09-02T09:07:58.854Z,27.77
2022-09-02T09:08:58.844Z,27.77
2022-09-02T09:09:58.833Z,27.82
2022-09-02T09:10:58.829Z,27.86
2022-09-02T09:11:58.811Z,27.86
2022-09-02T09:12:58.800Z,27.85
2022-09-02T09:13:58.795Z,27.85
2022-09-02T09:14:58.776Z,27.91
2022-09-02T09:15:58.809Z,27.86
2022-09-02T09:16:58.837Z,27.91
2022-09-02T09:17:58.744Z,27.88
2022-09-02T09:18:58.734Z,27.86
2022-09-02T09:19:58.732Z,27.96
2022-09-02T09:20:58.709Z,27.96
2022-09-02T09:21:58.698Z,27.98
2022-09-02T09:22:58.697Z,27.98
2022-09-02T09:23:58.679Z,27.89
2022-09-02T09:24:58.664Z,27.95
2022-09-02T09:25:58.653Z,27.98
2022-09-02T09:26:58.644Z,28.01
2022-09-02T09:27:58.632Z,28.01
2022-09-02T09:28:58.642Z,27.98
2022-09-02T09:29:58.609Z,27.96
2022-09-02T09:30:58.615Z,27.98
2022-09-02T09:31:58.603Z,28.01
2022-09-02T09:32:58.577Z,28.01
2022-09-02T09:33:58.566Z,28.09
2022-09-02T09:34:58.570Z,28.07
2022-09-02T09:35:58.542Z,28.04
2022-09-02T09:36:58.532Z,28.09
2022-09-02T09:37:58.521Z,28.09
2022-09-02T09:38:58.515Z,28.11
2022-09-02T09:39:58.497Z,28.21
2022-09-02T09:40:58.502Z,28.13
2022-09-02T09:41:58.514Z,28.23
2022-09-02T09:42:58.537Z,28.19
2022-09-02T09:43:58.454Z,28.26
2022-09-02T09:44:58.444Z,28.26
2022-09-02T09:45:58.504Z,28.29
2022-09-02T09:46:58.442Z,28.26
2022-09-02T09:47:58.540Z,28.28
2022-09-02T09:48:58.397Z,28.41
2022-09-02T09:49:58.388Z,28.29
2022-09-02T09:50:58.377Z,28.40
2022-09-02T09:51:58.364Z,28.43
2022-09-02T09:52:58.360Z,28.40
2022-09-02T09:53:58.342Z,28.51
2022-09-02T09:54:58.331Z,28.51
2022-09-02T09:55:58.320Z,28.41
2022-09-02T09:56:58.308Z,28.47
2022-09-02T09:57:58.299Z,28.51
2022-09-02T09:58:58.293Z,28.54
2022-09-02T09:59:58.279Z,28.60
2022-09-02T10:00:58.311Z,28.63
2022-09-02T10:01:58.336Z,28.72
2022-09-02T10:02:58.241Z,28.70
2022-09-02T10:03:58.231Z,28.81
2022-09-02T10:04:58.226Z,28.87
2022-09-02T10:05:58.211Z,28.96
2022-09-02T10:06:58.199Z,29.04
2022-09-02T10:07:58.187Z,28.93
2022-09-02T10:08:58.177Z,28.90
2022-09-02T10:09:58.165Z,28.88
2022-09-02T10:10:58.168Z,28.87
2022-09-02T10:11:58.149Z,28.84
2022-09-02T10:12:58.157Z,28.88
2022-09-02T10:13:58.169Z,28.88
2022-09-02T10:14:58.109Z,28.90
2022-09-02T10:15:58.170Z,28.85
2022-09-02T10:16:58.102Z,28.88
2022-09-02T10:17:58.075Z,29.35
2022-09-02T10:18:58.066Z,29.50
2022-09-02T10:19:58.052Z,29.89
2022-09-02T10:21:13.905Z,30.37
2022-09-02T10:21:59.037Z,30.69
2022-09-02T10:22:59.560Z,30.76
2022-09-02T10:23:58.012Z,30.27
2022-09-02T10:24:57.997Z,30.03
2022-09-02T10:25:57.987Z,29.86
2022-09-02T10:26:57.979Z,29.74
2022-09-02T10:27:57.970Z,29.62
2022-09-02T10:28:59.811Z,29.53
2022-09-02T10:29:57.945Z,29.41
2022-09-02T10:30:57.930Z,29.38
2022-09-02T10:31:58.008Z,29.44
2022-09-02T10:32:57.908Z,29.35
2022-09-02T10:33:57.921Z,29.33
2022-09-02T10:34:57.923Z,29.37
2022-09-02T10:35:57.877Z,29.33
2022-09-02T10:36:57.863Z,29.34
2022-09-02T10:37:57.855Z,29.37
2022-09-02T10:38:57.843Z,29.63
2022-09-02T10:39:57.846Z,30.47
2022-09-02T10:40:57.898Z,31.13
2022-09-02T10:41:57.810Z,31.58
2022-09-02T10:42:57.798Z,32.02
2022-09-02T10:43:57.788Z,32.32
2022-09-02T10:44:59.037Z,32.44
2022-09-02T10:45:57.776Z,32.13
2022-09-02T10:46:57.760Z,32.07
2022-09-02T10:47:57.744Z,32.22
2022-09-02T10:48:57.732Z,31.73
2022-09-02T10:49:57.721Z,31.33
2022-09-02T10:50:57.709Z,31.40
2022-09-02T10:51:57.706Z,31.36
2022-09-02T10:52:57.692Z,32.03
2022-09-02T10:53:57.680Z,32.61
2022-09-02T10:54:57.665Z,32.99
2022-09-02T10:55:57.655Z,33.31
2022-09-02T10:56:57.642Z,33.55
2022-09-02T10:57:57.638Z,33.80
2022-09-02T10:58:57.620Z,34.13
2022-09-02T10:59:57.609Z,34.31
2022-09-02T11:00:57.697Z,33.45
2022-09-02T11:01:57.588Z,33.22
2022-09-02T11:02:57.578Z,32.86
2022-09-02T11:03:57.675Z,32.51
2022-09-02T11:04:57.554Z,32.13
2022-09-02T11:05:57.543Z,31.98
2022-09-02T11:07:04.809Z,31.79
2022-09-02T11:07:58.524Z,31.67
2022-09-02T11:08:57.509Z,31.46
2022-09-02T11:09:57.505Z,31.45
2022-09-02T11:10:57.487Z,31.39
2022-09-02T11:12:00.073Z,31.39
2022-09-02T11:12:57.466Z,31.60
2022-09-02T11:13:57.455Z,32.30
2022-09-02T11:14:57.442Z,32.84
2022-09-02T11:15:57.499Z,33.43
2022-09-02T11:16:57.422Z,33.71
2022-09-02T11:17:57.413Z,33.94
2022-09-02T11:18:57.399Z,34.24
2022-09-02T11:19:57.388Z,34.48
2022-09-02T11:20:57.377Z,34.57
2022-09-02T11:21:57.390Z,34.84
2022-09-02T11:22:57.358Z,35.01
2022-09-02T11:23:57.344Z,35.13
2022-09-02T11:24:57.336Z,35.06
2022-09-02T11:25:57.322Z,35.25
2022-09-02T11:26:57.310Z,35.35
2022-09-02T11:27:57.307Z,34.96
2022-09-02T11:28:57.291Z,34.32
2022-09-02T11:29:57.277Z,33.86
2022-09-02T11:30:57.269Z,33.42
2022-09-02T11:31:57.256Z,33.15
2022-09-02T11:32:57.244Z,32.88
2022-09-02T11:33:57.346Z,32.67
2022-09-02T11:34:57.223Z,32.61
2022-09-02T11:35:57.212Z,32.42
2022-09-02T11:36:57.201Z,32.24
2022-09-02T11:37:57.193Z,32.03
2022-09-02T11:38:58.486Z,31.99
2022-09-02T11:40:11.729Z,31.82
2022-09-02T11:41:58.221Z,31.64
2022-09-02T11:42:57.139Z,31.61
2022-09-02T11:43:57.140Z,31.46
2022-09-02T11:44:57.114Z,31.50
2022-09-02T11:45:57.315Z,31.38
2022-09-02T11:46:57.170Z,31.33
2022-09-02T11:47:57.081Z,31.24
2022-09-02T11:48:57.074Z,31.21
2022-09-02T11:49:57.059Z,31.50
2022-09-02T11:50:57.047Z,31.88
2022-09-02T11:51:57.044Z,32.11
2022-09-02T11:52:57.026Z,32.21
2022-09-02T11:53:57.014Z,32.37
2022-09-02T11:55:00.679Z,32.48
2022-09-02T11:55:57.993Z,32.61
2022-09-02T11:56:56.982Z,32.67
2022-09-02T11:57:56.978Z,32.61
2022-09-02T11:58:56.960Z,32.74
2022-09-02T11:59:56.949Z,32.74
2022-09-02T12:00:56.938Z,32.62
2022-09-02T12:01:56.928Z,32.37
2022-09-02T12:02:56.921Z,32.10
2022-09-02T12:05:00.581Z,31.77
2022-09-02T12:05:57.070Z,31.67
2022-09-02T12:06:56.984Z,31.58
2022-09-02T12:07:56.861Z,31.43
2022-09-02T12:08:56.851Z,31.42
2022-09-02T12:09:56.961Z,31.35
2022-09-02T12:10:56.830Z,31.38
2022-09-02T12:11:56.818Z,31.33
2022-09-02T12:12:56.808Z,31.26
2022-09-02T12:13:56.801Z,31.18
2022-09-02T12:14:56.790Z,31.12
2022-09-02T12:15:56.825Z,31.06
2022-09-02T12:16:56.765Z,31.01
2022-09-02T12:17:56.754Z,30.99
2022-09-02T12:18:56.743Z,31.01
2022-09-02T12:19:56.733Z,30.98
2022-09-02T12:20:56.722Z,30.91
2022-09-02T12:21:56.718Z,30.83
2022-09-02T12:22:56.699Z,30.75
2022-09-02T12:23:56.751Z,30.89
2022-09-02T12:24:56.678Z,30.75
2022-09-02T12:25:56.667Z,30.68
2022-09-02T12:26:56.655Z,30.67
2022-09-02T12:27:56.651Z,30.68
2022-09-02T12:28:56.634Z,30.64
2022-09-02T12:29:56.627Z,30.61
2022-09-02T12:30:56.749Z,30.59
2022-09-02T12:31:56.601Z,30.56
2022-09-02T12:32:56.591Z,30.50
2022-09-02T12:33:56.590Z,30.56
2022-09-02T12:34:56.569Z,30.61
2022-09-02T12:35:56.559Z,30.62
2022-09-02T12:36:56.546Z,30.64
2022-09-02T12:37:56.534Z,30.86
2022-09-02T12:38:56.525Z,30.93
2022-09-02T12:39:56.535Z,31.02
2022-09-02T12:40:56.564Z,30.96
2022-09-02T12:41:56.493Z,30.78
2022-09-02T12:42:56.484Z,30.74
2022-09-02T12:43:56.470Z,30.72
2022-09-02T12:44:56.459Z,30.65
2022-09-02T12:45:56.456Z,30.61
2022-09-02T12:46:56.768Z,30.68
2022-09-02T12:47:56.430Z,30.53
2022-09-02T12:48:56.417Z,30.61
2022-09-02T12:49:56.436Z,30.61
2022-09-02T12:50:56.397Z,30.78
2022-09-02T12:51:56.394Z,30.84
2022-09-02T12:52:56.374Z,30.90
2022-09-02T12:53:56.363Z,30.98
2022-09-02T12:54:56.353Z,30.98